createdAt,value
2023-06-18T00:00:12.511Z,11.27
2023-06-18T00:00:42.878Z,11.27
2023-06-18T00:01:14.436Z,11.22
2023-06-18T00:01:46.554Z,11.22
2023-06-18T00:02:18.620Z,11.22
2023-06-18T00:02:50.346Z,11.22
2023-06-18T00:03:22.424Z,11.27
2023-06-18T00:03:54.408Z,11.27
2023-06-18T00:04:26.186Z,11.27
2023-06-18T00:04:58.528Z,11.27
2023-06-18T00:05:30.887Z,11.27
2023-06-18T00:06:02.506Z,11.27
2023-06-18T00:06:34.156Z,11.27
2023-06-18T00:06:50.170Z,11.27
2023-06-18T00:07:34.214Z,11.27
2023-06-18T00:08:06.165Z,11.27
2023-06-18T00:08:38.060Z,11.27
2023-06-18T00:09:10.220Z,11.27
2023-06-18T00:09:42.156Z,11.27
2023-06-18T00:10:14.247Z,11.38
2023-06-18T00:10:45.857Z,11.38
2023-06-18T00:11:18.093Z,11.38
2023-06-18T00:11:34.160Z,11.38
2023-06-18T00:12:05.802Z,11.38
2023-06-18T00:12:22.087Z,11.38
2023-06-18T00:12:53.973Z,11.38
2023-06-18T00:13:25.763Z,11.27
2023-06-18T00:13:58.048Z,11.27
2023-06-18T00:14:30.039Z,11.27
2023-06-18T00:15:04.390Z,11.27
2023-06-18T00:15:33.775Z,11.27
2023-06-18T00:15:50.104Z,11.27
2023-06-18T00:16:21.759Z,11.27
2023-06-18T00:17:05.990Z,11.22
2023-06-18T00:17:37.830Z,11.22
2023-06-18T00:18:09.768Z,11.22
2023-06-18T00:18:41.796Z,11.22
2023-06-18T00:19:13.774Z,11.22
2023-06-18T00:19:45.571Z,11.22
2023-06-18T00:20:17.940Z,11.22
2023-06-18T00:20:33.752Z,11.22
2023-06-18T00:21:17.491Z,11.11
2023-06-18T00:21:49.861Z,11.11
2023-06-18T00:22:21.413Z,11.11
2023-06-18T00:22:53.372Z,11.11
2023-06-18T00:23:25.600Z,11.11
2023-06-18T00:23:57.718Z,11.11
2023-06-18T00:24:29.465Z,11.11
2023-06-18T00:25:03.382Z,11.11
2023-06-18T00:25:33.410Z,11.11
2023-06-18T00:26:05.533Z,11.11
2023-06-18T00:26:38.618Z,11.11
2023-06-18T00:27:10.122Z,11.11
2023-06-18T00:27:41.210Z,11.11
2023-06-18T00:28:13.464Z,11.11
2023-06-18T00:28:45.497Z,11.11
2023-06-18T00:29:17.180Z,11.11
2023-06-18T00:29:33.336Z,11.11
2023-06-18T00:30:06.119Z,11.11
2023-06-18T00:30:21.716Z,11.11
2023-06-18T00:30:53.368Z,11.11
2023-06-18T00:31:25.058Z,11.11
2023-06-18T00:31:57.257Z,11.11
2023-06-18T00:32:29.210Z,11.11
2023-06-18T00:33:01.100Z,11.11
2023-06-18T00:33:32.992Z,11.11
2023-06-18T00:33:49.303Z,11.11
2023-06-18T00:34:20.858Z,11.11
2023-06-18T00:35:05.604Z,11.11
2023-06-18T00:35:36.899Z,11.00
2023-06-18T00:36:08.929Z,11.00
2023-06-18T00:36:40.919Z,11.00
2023-06-18T00:37:13.047Z,11.00
2023-06-18T00:37:44.815Z,11.00
2023-06-18T00:38:16.911Z,11.00
2023-06-18T00:38:33.024Z,11.00
2023-06-18T00:39:16.872Z,11.00
2023-06-18T00:39:49.124Z,11.00
2023-06-18T00:40:21.258Z,11.00
2023-06-18T00:40:52.642Z,11.00
2023-06-18T00:41:24.655Z,11.00
2023-06-18T00:41:56.875Z,11.00
2023-06-18T00:42:28.806Z,11.00
2023-06-18T00:43:00.632Z,11.00
2023-06-18T00:43:32.637Z,11.00
2023-06-18T00:44:05.129Z,11.00
2023-06-18T00:44:36.392Z,11.00
2023-06-18T00:45:10.315Z,11.00
2023-06-18T00:45:40.713Z,11.00
2023-06-18T00:46:12.612Z,11.00
2023-06-18T00:46:44.379Z,11.00
2023-06-18T00:47:16.445Z,11.00
2023-06-18T00:47:48.641Z,11.00
2023-06-18T00:48:20.577Z,11.00
2023-06-18T00:48:52.359Z,11.00
2023-06-18T00:49:24.445Z,11.00
2023-06-18T00:49:56.358Z,11.00
2023-06-18T00:50:28.907Z,11.00
2023-06-18T00:51:00.429Z,11.00
2023-06-18T00:51:32.309Z,11.00
2023-06-18T00:52:04.959Z,11.00
2023-06-18T00:52:36.231Z,11.00
2023-06-18T00:53:08.270Z,11.00
2023-06-18T00:53:40.166Z,11.00
2023-06-18T00:54:12.298Z,11.00
2023-06-18T00:54:44.138Z,11.00
2023-06-18T00:55:16.303Z,11.00
2023-06-18T00:55:48.142Z,11.00
2023-06-18T00:56:20.192Z,11.00
2023-06-18T00:56:52.374Z,11.00
2023-06-18T00:57:24.000Z,11.00
2023-06-18T00:57:56.091Z,11.00
2023-06-18T00:58:28.394Z,11.00
2023-06-18T00:59:00.018Z,11.00
2023-06-18T00:59:31.952Z,11.00
2023-06-18T00:59:48.010Z,11.00
2023-06-18T01:00:32.383Z,10.88
2023-06-18T01:01:04.540Z,10.88
2023-06-18T01:01:35.930Z,10.88
2023-06-18T01:02:08.087Z,10.77
2023-06-18T01:02:41.519Z,10.77
2023-06-18T01:03:11.902Z,10.77
2023-06-18T01:03:43.920Z,10.77
2023-06-18T01:04:15.710Z,10.77
2023-06-18T01:04:32.037Z,10.72
2023-06-18T01:05:04.581Z,10.72
2023-06-18T01:05:19.894Z,10.72
2023-06-18T01:05:52.049Z,10.72
2023-06-18T01:06:23.529Z,10.72
2023-06-18T01:06:55.619Z,10.72
2023-06-18T01:07:28.613Z,10.72
2023-06-18T01:07:59.732Z,10.72
2023-06-18T01:08:31.553Z,10.72
2023-06-18T01:08:47.635Z,10.72
2023-06-18T01:09:19.673Z,10.61
2023-06-18T01:10:04.573Z,10.61
2023-06-18T01:10:35.425Z,10.61
2023-06-18T01:11:07.520Z,10.61
2023-06-18T01:11:39.567Z,10.61
2023-06-18T01:12:11.480Z,10.61
2023-06-18T01:12:43.422Z,10.61
2023-06-18T01:13:15.309Z,10.61
2023-06-18T01:13:31.575Z,10.61
2023-06-18T01:14:15.248Z,10.61
2023-06-18T01:14:47.366Z,10.61
2023-06-18T01:15:19.796Z,10.50
2023-06-18T01:15:51.209Z,10.50
2023-06-18T01:16:23.322Z,10.50
2023-06-18T01:16:55.364Z,10.38
2023-06-18T01:17:27.257Z,10.38
2023-06-18T01:17:59.315Z,10.38
2023-06-18T01:18:31.159Z,10.38
2023-06-18T01:19:03.889Z,10.38
2023-06-18T01:19:35.019Z,10.38
2023-06-18T01:20:07.332Z,10.38
2023-06-18T01:20:39.134Z,10.38
2023-06-18T01:21:11.099Z,10.38
2023-06-18T01:21:43.051Z,10.27
2023-06-18T01:22:14.969Z,10.27
2023-06-18T01:22:47.055Z,10.27
2023-06-18T01:23:18.994Z,10.27
2023-06-18T01:23:50.832Z,10.27
2023-06-18T01:24:22.930Z,10.27
2023-06-18T01:24:54.921Z,10.27
2023-06-18T01:25:27.278Z,10.22
2023-06-18T01:25:59.042Z,10.22
2023-06-18T01:26:30.852Z,10.22
2023-06-18T01:27:03.225Z,10.22
2023-06-18T01:27:35.093Z,10.22
2023-06-18T01:28:06.722Z,10.22
2023-06-18T01:28:38.708Z,10.22
2023-06-18T01:29:10.838Z,10.22
2023-06-18T01:29:42.861Z,10.22
2023-06-18T01:30:15.790Z,10.22
2023-06-18T01:30:30.794Z,10.22
2023-06-18T01:31:14.577Z,10.22
2023-06-18T01:31:46.735Z,10.22
2023-06-18T01:32:18.920Z,10.22
2023-06-18T01:32:50.866Z,10.22
2023-06-18T01:33:22.631Z,10.11
2023-06-18T01:33:54.926Z,10.11
2023-06-18T01:34:26.716Z,10.11
2023-06-18T01:34:58.763Z,10.11
2023-06-18T01:35:14.854Z,10.11
2023-06-18T01:35:46.491Z,10.11
2023-06-18T01:36:03.028Z,10.11
2023-06-18T01:36:34.615Z,10.11
2023-06-18T01:37:06.225Z,10.11
2023-06-18T01:37:38.580Z,10.11
2023-06-18T01:38:10.477Z,10.11
2023-06-18T01:38:42.598Z,10.11
2023-06-18T01:39:14.264Z,10.22
2023-06-18T01:39:46.194Z,10.22
2023-06-18T01:40:18.662Z,10.22
2023-06-18T01:40:50.548Z,10.22
2023-06-18T01:41:22.167Z,10.22
2023-06-18T01:41:54.101Z,10.22
2023-06-18T01:42:26.266Z,10.22
2023-06-18T01:42:58.487Z,10.27
2023-06-18T01:43:30.123Z,10.27
2023-06-18T01:43:46.180Z,10.27
2023-06-18T01:44:17.950Z,10.27
2023-06-18T01:45:04.879Z,10.27
2023-06-18T01:45:34.142Z,10.27
2023-06-18T01:46:05.900Z,10.27
2023-06-18T01:46:38.112Z,10.27
2023-06-18T01:47:10.019Z,10.27
2023-06-18T01:47:41.990Z,10.27
2023-06-18T01:48:13.921Z,10.27
2023-06-18T01:48:29.993Z,10.27
2023-06-18T01:49:13.957Z,10.27
2023-06-18T01:49:46.096Z,10.27
2023-06-18T01:50:18.071Z,10.27
2023-06-18T01:50:50.039Z,10.27
2023-06-18T01:51:21.812Z,10.27
2023-06-18T01:51:53.865Z,10.22
2023-06-18T01:52:25.884Z,10.22
2023-06-18T01:52:57.777Z,10.22
2023-06-18T01:53:29.902Z,10.22
2023-06-18T01:54:02.084Z,10.22
2023-06-18T01:54:33.627Z,10.11
2023-06-18T01:55:06.025Z,10.11
2023-06-18T01:55:37.677Z,10.11
2023-06-18T01:56:09.676Z,10.11
2023-06-18T01:56:41.592Z,10.11
2023-06-18T01:57:13.632Z,10.11
2023-06-18T01:57:45.564Z,10.00
2023-06-18T01:58:17.587Z,10.00
2023-06-18T01:58:49.786Z,10.00
2023-06-18T01:59:21.405Z,10.00
2023-06-18T01:59:53.403Z,10.00
2023-06-18T02:00:25.830Z,10.00
2023-06-18T02:00:57.348Z,9.88
2023-06-18T02:01:29.749Z,9.88
2023-06-18T02:01:45.617Z,9.88
2023-06-18T02:02:17.232Z,9.88
2023-06-18T02:03:01.722Z,9.88
2023-06-18T02:03:33.187Z,9.88
2023-06-18T02:04:05.348Z,9.88
2023-06-18T02:04:37.243Z,9.88
2023-06-18T02:05:09.694Z,9.88
2023-06-18T02:05:41.117Z,9.88
2023-06-18T02:06:13.261Z,9.88
2023-06-18T02:06:45.092Z,9.88
2023-06-18T02:07:17.138Z,9.88
2023-06-18T02:07:49.257Z,9.88
2023-06-18T02:08:21.118Z,9.88
2023-06-18T02:08:53.088Z,9.88
2023-06-18T02:09:25.083Z,10.00
2023-06-18T02:09:57.123Z,10.00
2023-06-18T02:10:29.945Z,10.00
2023-06-18T02:10:45.040Z,10.00
2023-06-18T02:11:29.297Z,10.00
2023-06-18T02:12:01.352Z,10.00
2023-06-18T02:12:32.790Z,10.00
2023-06-18T02:13:05.064Z,10.00
2023-06-18T02:13:36.894Z,10.00
2023-06-18T02:14:09.165Z,10.00
2023-06-18T02:14:40.995Z,10.00
2023-06-18T02:15:13.705Z,10.00
2023-06-18T02:15:29.415Z,10.00
2023-06-18T02:16:00.700Z,9.88
2023-06-18T02:16:16.943Z,9.88
2023-06-18T02:16:48.580Z,9.88
2023-06-18T02:17:20.741Z,9.88
2023-06-18T02:17:52.773Z,9.88
2023-06-18T02:18:24.782Z,9.88
2023-06-18T02:18:56.650Z,9.88
2023-06-18T02:19:29.139Z,9.88
2023-06-18T02:19:44.750Z,9.77
2023-06-18T02:20:16.835Z,9.77
2023-06-18T02:21:00.734Z,9.77
2023-06-18T02:21:32.553Z,9.77
2023-06-18T02:22:04.889Z,9.77
2023-06-18T02:22:36.416Z,9.77
2023-06-18T02:23:08.627Z,9.77
2023-06-18T02:23:40.385Z,9.77
2023-06-18T02:24:12.411Z,9.77
2023-06-18T02:24:29.128Z,9.77
2023-06-18T02:25:12.709Z,9.72
2023-06-18T02:25:44.454Z,9.72
2023-06-18T02:26:16.308Z,9.72
2023-06-18T02:26:48.442Z,9.72
2023-06-18T02:27:20.378Z,9.72
2023-06-18T02:27:52.351Z,9.72
2023-06-18T02:28:24.172Z,9.72
2023-06-18T02:28:56.220Z,9.72
2023-06-18T02:29:28.919Z,9.72
2023-06-18T02:30:01.383Z,9.72
2023-06-18T02:30:32.070Z,9.61
2023-06-18T02:31:04.353Z,9.61
2023-06-18T02:31:36.090Z,9.61
2023-06-18T02:32:08.384Z,9.61
2023-06-18T02:32:39.993Z,9.61
2023-06-18T02:33:12.092Z,9.61
2023-06-18T02:33:44.119Z,9.61
2023-06-18T02:34:16.040Z,9.61
2023-06-18T02:34:48.020Z,9.61
2023-06-18T02:35:20.257Z,9.61
2023-06-18T02:35:51.897Z,9.61
2023-06-18T02:36:24.191Z,9.61
2023-06-18T02:36:55.788Z,9.61
2023-06-18T02:37:27.945Z,9.61
2023-06-18T02:38:00.256Z,9.50
2023-06-18T02:38:31.926Z,9.50
2023-06-18T02:39:03.850Z,9.50
2023-06-18T02:39:35.857Z,9.50
2023-06-18T02:40:08.516Z,9.50
2023-06-18T02:40:39.725Z,9.50
2023-06-18T02:41:11.781Z,9.50
2023-06-18T02:41:27.907Z,9.50
2023-06-18T02:42:11.902Z,9.50
2023-06-18T02:42:43.765Z,9.50
2023-06-18T02:43:15.481Z,9.50
2023-06-18T02:43:47.593Z,9.50
2023-06-18T02:44:19.838Z,9.50
2023-06-18T02:44:51.537Z,9.50
2023-06-18T02:45:24.033Z,9.50
2023-06-18T02:45:55.587Z,9.38
2023-06-18T02:46:27.690Z,9.38
2023-06-18T02:46:59.859Z,9.38
2023-06-18T02:47:31.504Z,9.38
2023-06-18T02:48:03.944Z,9.38
2023-06-18T02:48:35.482Z,9.38
2023-06-18T02:49:07.476Z,9.38
2023-06-18T02:49:39.448Z,9.38
2023-06-18T02:50:11.592Z,9.38
2023-06-18T02:50:27.778Z,9.50
2023-06-18T02:50:59.720Z,9.50
2023-06-18T02:51:15.426Z,9.50
2023-06-18T02:51:47.276Z,9.50
2023-06-18T02:52:19.457Z,9.50
2023-06-18T02:52:51.250Z,9.50
2023-06-18T02:53:23.236Z,9.50
2023-06-18T02:53:55.030Z,9.50
2023-06-18T02:54:27.229Z,9.50
2023-06-18T02:54:43.441Z,9.50
2023-06-18T02:55:15.406Z,9.50
2023-06-18T02:55:59.421Z,9.50
2023-06-18T02:56:30.973Z,9.50
2023-06-18T02:57:03.658Z,9.50
2023-06-18T02:57:35.155Z,9.50
2023-06-18T02:58:06.974Z,9.50
2023-06-18T02:58:39.342Z,9.50
2023-06-18T02:59:10.936Z,9.50
2023-06-18T02:59:27.278Z,9.50
2023-06-18T03:00:12.319Z,9.50
2023-06-18T03:00:43.001Z,9.38
2023-06-18T03:01:14.882Z,9.38
2023-06-18T03:01:46.809Z,9.38
2023-06-18T03:02:18.998Z,9.38
2023-06-18T03:02:51.019Z,9.38
2023-06-18T03:03:22.720Z,9.38
2023-06-18T03:03:54.703Z,9.38
2023-06-18T03:04:26.839Z,9.38
2023-06-18T03:04:59.128Z,9.38
2023-06-18T03:05:30.919Z,9.38
2023-06-18T03:06:05.493Z,9.38
2023-06-18T03:06:34.987Z,9.38
2023-06-18T03:07:07.213Z,9.50
2023-06-18T03:07:40.076Z,9.50
2023-06-18T03:08:11.390Z,9.50
2023-06-18T03:08:43.486Z,9.50
2023-06-18T03:09:15.170Z,9.50
2023-06-18T03:09:47.006Z,9.50
2023-06-18T03:10:20.849Z,9.50
2023-06-18T03:10:50.620Z,9.50
2023-06-18T03:11:22.584Z,9.38
2023-06-18T03:11:54.473Z,9.38
2023-06-18T03:12:26.513Z,9.38
2023-06-18T03:12:42.577Z,9.38
2023-06-18T03:13:14.326Z,9.38
2023-06-18T03:13:58.757Z,9.38
2023-06-18T03:14:30.400Z,9.38
2023-06-18T03:15:04.893Z,9.38
2023-06-18T03:15:34.277Z,9.38
2023-06-18T03:16:06.403Z,9.38
2023-06-18T03:16:38.514Z,9.38
2023-06-18T03:17:10.126Z,9.38
2023-06-18T03:17:26.450Z,9.38
2023-06-18T03:18:10.175Z,9.38
2023-06-18T03:18:42.267Z,9.38
2023-06-18T03:19:14.153Z,9.38
2023-06-18T03:19:46.169Z,9.38
2023-06-18T03:20:18.459Z,9.38
2023-06-18T03:20:50.128Z,9.38
2023-06-18T03:21:22.148Z,9.38
2023-06-18T03:21:54.177Z,9.38
2023-06-18T03:22:26.432Z,9.38
2023-06-18T03:22:58.154Z,9.38
2023-06-18T03:23:30.242Z,9.38
2023-06-18T03:24:02.752Z,9.38
2023-06-18T03:24:34.217Z,9.38
2023-06-18T03:25:06.530Z,9.38
2023-06-18T03:25:38.306Z,9.38
2023-06-18T03:26:10.301Z,9.38
2023-06-18T03:26:42.259Z,9.38
2023-06-18T03:27:14.119Z,9.38
2023-06-18T03:27:45.894Z,9.38
2023-06-18T03:28:17.964Z,9.38
2023-06-18T03:28:50.041Z,9.38
2023-06-18T03:29:21.834Z,9.38
2023-06-18T03:29:53.795Z,9.38
2023-06-18T03:30:26.271Z,9.38
2023-06-18T03:30:57.945Z,9.38
2023-06-18T03:31:30.028Z,9.27
2023-06-18T03:32:02.246Z,9.27
2023-06-18T03:32:17.949Z,9.27
2023-06-18T03:33:02.093Z,9.27
2023-06-18T03:33:33.762Z,9.27
2023-06-18T03:34:05.909Z,9.38
2023-06-18T03:34:37.546Z,9.38
2023-06-18T03:35:10.179Z,9.38
2023-06-18T03:35:41.758Z,9.38
2023-06-18T03:36:13.561Z,9.38
2023-06-18T03:36:45.707Z,9.38
2023-06-18T03:37:17.650Z,9.38
2023-06-18T03:37:49.743Z,9.38
2023-06-18T03:38:21.630Z,9.38
2023-06-18T03:38:53.665Z,9.27
2023-06-18T03:39:25.451Z,9.27
2023-06-18T03:39:57.606Z,9.22
2023-06-18T03:40:30.609Z,9.22
2023-06-18T03:41:01.531Z,9.22
2023-06-18T03:41:33.481Z,9.22
2023-06-18T03:42:05.817Z,9.22
2023-06-18T03:42:37.194Z,9.22
2023-06-18T03:43:09.543Z,9.22
2023-06-18T03:43:25.426Z,9.22
2023-06-18T03:43:57.378Z,9.27
2023-06-18T03:44:13.319Z,9.27
2023-06-18T03:44:45.387Z,9.27
2023-06-18T03:45:18.371Z,9.27
2023-06-18T03:45:49.500Z,9.38
2023-06-18T03:46:21.320Z,9.38
2023-06-18T03:46:53.420Z,9.38
2023-06-18T03:47:25.113Z,9.38
2023-06-18T03:47:41.517Z,9.38
2023-06-18T03:48:13.149Z,9.38
2023-06-18T03:48:57.254Z,9.50
2023-06-18T03:49:29.462Z,9.50
2023-06-18T03:50:02.254Z,9.50
2023-06-18T03:50:33.057Z,9.50
2023-06-18T03:51:05.264Z,9.50
2023-06-18T03:51:36.881Z,9.50
2023-06-18T03:52:09.166Z,9.61
2023-06-18T03:52:25.098Z,9.61
2023-06-18T03:53:09.746Z,9.61
2023-06-18T03:53:41.145Z,9.61
2023-06-18T03:54:12.783Z,9.72
2023-06-18T03:54:44.760Z,9.72
2023-06-18T03:55:17.196Z,9.72
2023-06-18T03:55:48.950Z,9.72
2023-06-18T03:56:20.744Z,9.72
2023-06-18T03:56:52.699Z,9.72
2023-06-18T03:57:24.863Z,9.61
2023-06-18T03:57:56.838Z,9.61
2023-06-18T03:58:28.672Z,9.61
2023-06-18T03:59:00.859Z,9.61
2023-06-18T03:59:32.744Z,9.61
2023-06-18T04:00:06.652Z,9.61
2023-06-18T04:00:36.571Z,9.61
2023-06-18T04:01:08.929Z,9.61
2023-06-18T04:01:40.709Z,9.72
2023-06-18T04:02:14.604Z,9.61
2023-06-18T04:02:44.561Z,9.61
2023-06-18T04:03:16.473Z,9.61
2023-06-18T04:03:48.703Z,9.61
2023-06-18T04:04:20.653Z,9.72
2023-06-18T04:04:52.460Z,9.72
2023-06-18T04:05:24.761Z,9.72
2023-06-18T04:05:40.519Z,9.72
2023-06-18T04:06:12.362Z,9.72
2023-06-18T04:06:56.476Z,9.72
2023-06-18T04:07:28.272Z,9.72
2023-06-18T04:08:00.600Z,9.72
2023-06-18T04:08:32.365Z,9.77
2023-06-18T04:09:04.683Z,9.77
2023-06-18T04:09:36.157Z,9.77
2023-06-18T04:10:08.545Z,9.77
2023-06-18T04:10:24.592Z,9.77
2023-06-18T04:11:08.472Z,9.77
2023-06-18T04:11:40.573Z,9.77
2023-06-18T04:12:12.142Z,9.88
2023-06-18T04:12:44.110Z,9.88
2023-06-18T04:13:16.049Z,9.88
2023-06-18T04:13:48.234Z,9.88
2023-06-18T04:14:20.176Z,9.88
2023-06-18T04:14:51.991Z,9.88
2023-06-18T04:15:24.748Z,9.88
2023-06-18T04:15:56.265Z,9.88
2023-06-18T04:16:27.912Z,9.88
2023-06-18T04:17:00.118Z,10.00
2023-06-18T04:17:32.090Z,10.00
2023-06-18T04:18:04.764Z,10.00
2023-06-18T04:18:35.691Z,10.00
2023-06-18T04:19:07.646Z,10.00
2023-06-18T04:19:24.021Z,10.00
2023-06-18T04:19:55.933Z,10.00
2023-06-18T04:20:12.242Z,10.00
2023-06-18T04:20:43.616Z,10.00
2023-06-18T04:21:15.817Z,10.11
2023-06-18T04:21:47.864Z,10.11
2023-06-18T04:22:19.808Z,10.22
2023-06-18T04:22:51.514Z,10.22
2023-06-18T04:23:23.628Z,10.27
2023-06-18T04:23:40.159Z,10.27
2023-06-18T04:24:11.565Z,10.27
2023-06-18T04:24:55.549Z,10.38
2023-06-18T04:25:27.801Z,10.38
2023-06-18T04:25:59.686Z,10.38
2023-06-18T04:26:31.432Z,10.50
2023-06-18T04:27:04.261Z,10.50
2023-06-18T04:27:35.368Z,10.50
2023-06-18T04:28:07.622Z,10.61
2023-06-18T04:28:39.730Z,10.61
2023-06-18T04:29:12.435Z,10.61
2023-06-18T04:29:43.386Z,10.72
2023-06-18T04:30:16.397Z,10.72
2023-06-18T04:30:47.250Z,10.77
2023-06-18T04:31:19.567Z,10.77
2023-06-18T04:31:51.237Z,10.77
2023-06-18T04:32:23.309Z,10.88
2023-06-18T04:32:39.582Z,10.88
2023-06-18T04:33:23.347Z,11.00
2023-06-18T04:33:55.420Z,11.00
2023-06-18T04:34:27.169Z,11.11
2023-06-18T04:34:59.091Z,11.11
2023-06-18T04:35:31.463Z,11.11
2023-06-18T04:36:03.751Z,11.22
2023-06-18T04:36:35.084Z,11.22
2023-06-18T04:37:06.993Z,11.22
2023-06-18T04:37:23.278Z,11.22
2023-06-18T04:37:55.074Z,11.27
2023-06-18T04:38:11.168Z,11.27
2023-06-18T04:38:43.073Z,11.38
2023-06-18T04:39:15.039Z,11.38
2023-06-18T04:39:47.003Z,11.38
2023-06-18T04:40:19.713Z,11.50
2023-06-18T04:40:51.008Z,11.50
2023-06-18T04:41:22.906Z,11.50
2023-06-18T04:41:39.314Z,11.61
2023-06-18T04:42:10.923Z,11.61
2023-06-18T04:42:54.975Z,11.72
2023-06-18T04:43:26.681Z,11.77
2023-06-18T04:43:58.871Z,11.88
2023-06-18T04:44:30.874Z,11.88
2023-06-18T04:45:06.516Z,11.88
2023-06-18T04:45:34.759Z,12.00
2023-06-18T04:46:06.666Z,12.00
2023-06-18T04:46:38.748Z,12.11
2023-06-18T04:47:11.036Z,12.11
2023-06-18T04:47:42.688Z,12.22
2023-06-18T04:48:14.550Z,12.27
2023-06-18T04:48:46.674Z,12.38
2023-06-18T04:49:18.728Z,12.38
2023-06-18T04:49:50.647Z,12.50
2023-06-18T04:50:22.949Z,12.61
2023-06-18T04:50:38.680Z,12.61
2023-06-18T04:51:22.450Z,12.77
2023-06-18T04:51:54.658Z,12.77
2023-06-18T04:52:26.332Z,12.88
2023-06-18T04:52:58.530Z,13.00
2023-06-18T04:53:30.561Z,13.22
2023-06-18T04:54:03.083Z,13.27
2023-06-18T04:54:34.269Z,13.38
2023-06-18T04:55:06.564Z,13.50
2023-06-18T04:55:22.456Z,13.50
2023-06-18T04:55:54.609Z,13.50
2023-06-18T04:56:10.789Z,13.50
2023-06-18T04:56:42.183Z,13.50
2023-06-18T04:57:14.468Z,13.50
2023-06-18T04:57:46.308Z,13.61
2023-06-18T04:58:18.450Z,13.61
2023-06-18T04:58:50.305Z,13.72
2023-06-18T04:59:24.042Z,13.88
2023-06-18T04:59:38.147Z,14.00
2023-06-18T05:00:11.890Z,14.00
2023-06-18T05:00:54.333Z,14.11
2023-06-18T05:01:25.958Z,14.11
2023-06-18T05:01:58.216Z,14.22
2023-06-18T05:02:30.314Z,14.22
2023-06-18T05:03:02.203Z,14.22
2023-06-18T05:03:33.969Z,14.22
2023-06-18T05:04:06.224Z,14.27
2023-06-18T05:04:38.156Z,14.38
2023-06-18T05:05:10.498Z,14.50
2023-06-18T05:05:41.922Z,14.61
2023-06-18T05:06:13.938Z,14.61
2023-06-18T05:06:45.953Z,14.61
2023-06-18T05:07:17.787Z,14.72
2023-06-18T05:07:49.982Z,14.72
2023-06-18T05:08:21.919Z,14.72
2023-06-18T05:08:53.990Z,14.61
2023-06-18T05:09:25.676Z,14.61
2023-06-18T05:09:57.861Z,14.61
2023-06-18T05:10:14.255Z,14.61
2023-06-18T05:10:45.761Z,14.61
2023-06-18T05:11:30.105Z,14.61
2023-06-18T05:12:01.836Z,14.61
2023-06-18T05:12:33.683Z,14.61
2023-06-18T05:13:05.874Z,14.61
2023-06-18T05:13:37.707Z,14.50
2023-06-18T05:14:09.786Z,14.50
2023-06-18T05:14:41.460Z,14.50
2023-06-18T05:15:15.243Z,14.50
2023-06-18T05:15:45.541Z,14.50
2023-06-18T05:16:17.509Z,14.50
2023-06-18T05:16:49.692Z,14.50
2023-06-18T05:17:21.582Z,14.50
2023-06-18T05:17:53.453Z,14.50
2023-06-18T05:18:25.237Z,14.50
2023-06-18T05:18:57.508Z,14.50
2023-06-18T05:19:29.517Z,14.50
2023-06-18T05:20:02.110Z,14.50
2023-06-18T05:20:33.241Z,14.61
2023-06-18T05:21:05.358Z,14.61
2023-06-18T05:21:37.274Z,14.72
2023-06-18T05:22:09.560Z,14.72
2023-06-18T05:22:41.074Z,14.72
2023-06-18T05:23:13.191Z,14.77
2023-06-18T05:23:45.158Z,14.77
2023-06-18T05:24:17.227Z,14.88
2023-06-18T05:24:49.185Z,14.88
2023-06-18T05:25:23.141Z,14.88
2023-06-18T05:25:53.121Z,14.88
2023-06-18T05:26:25.104Z,14.88
2023-06-18T05:26:57.121Z,14.88
2023-06-18T05:27:29.242Z,14.88
2023-06-18T05:28:01.097Z,14.88
2023-06-18T05:28:33.061Z,15.00
2023-06-18T05:29:05.264Z,15.00
2023-06-18T05:29:21.256Z,15.00
2023-06-18T05:29:52.817Z,15.11
2023-06-18T05:30:11.389Z,15.11
2023-06-18T05:30:41.357Z,15.22
2023-06-18T05:31:12.857Z,15.27
2023-06-18T05:31:44.815Z,15.27
2023-06-18T05:32:16.853Z,15.38
2023-06-18T05:32:48.646Z,15.38
2023-06-18T05:33:21.047Z,15.38
2023-06-18T05:33:36.741Z,15.38
2023-06-18T05:34:08.956Z,15.50
2023-06-18T05:34:52.861Z,15.61
2023-06-18T05:35:24.930Z,15.61
2023-06-18T05:35:56.594Z,15.72
2023-06-18T05:36:28.922Z,15.72
2023-06-18T05:37:00.787Z,15.77
2023-06-18T05:37:32.504Z,15.77
2023-06-18T05:38:05.038Z,15.88
2023-06-18T05:38:36.703Z,15.88
2023-06-18T05:39:08.430Z,16.00
2023-06-18T05:39:40.885Z,16.00
2023-06-18T05:40:12.788Z,16.11
2023-06-18T05:40:44.516Z,16.11
2023-06-18T05:41:16.301Z,16.22
2023-06-18T05:41:48.464Z,16.27
2023-06-18T05:42:20.673Z,16.27
2023-06-18T05:42:52.487Z,16.27
2023-06-18T05:43:24.274Z,16.27
2023-06-18T05:43:56.315Z,16.27
2023-06-18T05:44:28.560Z,16.38
2023-06-18T05:45:02.208Z,16.38
2023-06-18T05:45:32.231Z,16.50
2023-06-18T05:46:04.823Z,16.61
2023-06-18T05:46:36.362Z,16.61
2023-06-18T05:47:08.210Z,16.61
2023-06-18T05:47:40.616Z,16.72
2023-06-18T05:48:12.068Z,16.72
2023-06-18T05:48:44.224Z,16.72
2023-06-18T05:49:16.255Z,16.77
2023-06-18T05:49:47.951Z,16.88
2023-06-18T05:50:20.980Z,17.11
2023-06-18T05:50:52.140Z,17.22
2023-06-18T05:51:23.912Z,17.22
2023-06-18T05:51:55.910Z,17.22
2023-06-18T05:52:28.361Z,17.22
2023-06-18T05:53:00.570Z,17.22
2023-06-18T05:53:32.124Z,17.22
2023-06-18T05:54:04.382Z,17.22
2023-06-18T05:54:20.343Z,17.22
2023-06-18T05:55:04.952Z,17.38
2023-06-18T05:55:35.866Z,17.50
2023-06-18T05:55:52.439Z,17.61
2023-06-18T05:56:23.940Z,17.72
2023-06-18T05:57:08.083Z,18.00
2023-06-18T05:57:40.429Z,18.11
2023-06-18T05:58:11.923Z,18.22
2023-06-18T05:58:44.084Z,18.22
2023-06-18T05:59:16.016Z,18.22
2023-06-18T05:59:47.686Z,18.22
2023-06-18T06:00:21.631Z,18.22
2023-06-18T06:00:51.901Z,18.22
2023-06-18T06:01:23.970Z,18.22
2023-06-18T06:01:55.844Z,18.22
2023-06-18T06:02:27.842Z,18.22
2023-06-18T06:03:00.084Z,18.22
2023-06-18T06:03:31.808Z,18.22
2023-06-18T06:04:04.246Z,18.27
2023-06-18T06:04:35.589Z,18.27
2023-06-18T06:05:07.936Z,18.27
2023-06-18T06:05:40.139Z,18.27
2023-06-18T06:06:11.703Z,18.22
2023-06-18T06:06:43.655Z,18.27
2023-06-18T06:07:15.659Z,18.27
2023-06-18T06:07:47.699Z,18.22
2023-06-18T06:08:24.743Z,18.22
2023-06-18T06:08:35.575Z,18.22
2023-06-18T06:09:07.363Z,18.22
2023-06-18T06:09:51.655Z,18.22
2023-06-18T06:10:24.121Z,18.22
2023-06-18T06:10:55.340Z,18.27
2023-06-18T06:11:27.442Z,18.38
2023-06-18T06:11:59.805Z,18.38
2023-06-18T06:12:31.303Z,18.61
2023-06-18T06:13:03.752Z,18.77
2023-06-18T06:13:19.781Z,18.88
2023-06-18T06:14:04.373Z,18.88
2023-06-18T06:14:35.201Z,19.00
2023-06-18T06:14:51.359Z,19.00
2023-06-18T06:15:23.723Z,19.22
2023-06-18T06:16:07.321Z,19.22
2023-06-18T06:16:39.839Z,19.27
2023-06-18T06:17:11.429Z,19.27
2023-06-18T06:17:43.179Z,19.27
2023-06-18T06:18:16.836Z,19.38
2023-06-18T06:18:47.197Z,19.61
2023-06-18T06:19:19.508Z,19.72
2023-06-18T06:19:35.342Z,19.72
2023-06-18T06:20:20.581Z,19.72
2023-06-18T06:20:51.370Z,19.72
2023-06-18T06:21:22.918Z,19.77
2023-06-18T06:21:54.924Z,20.00
2023-06-18T06:22:26.986Z,20.00
2023-06-18T06:22:59.312Z,20.00
2023-06-18T06:23:31.067Z,19.88
2023-06-18T06:24:03.773Z,19.88
2023-06-18T06:24:34.957Z,19.88
2023-06-18T06:25:07.199Z,20.00
2023-06-18T06:25:38.779Z,20.00
2023-06-18T06:26:11.191Z,20.22
2023-06-18T06:26:42.978Z,20.22
2023-06-18T06:27:14.830Z,20.22
2023-06-18T06:27:46.765Z,20.11
2023-06-18T06:28:19.010Z,20.11
2023-06-18T06:28:51.101Z,20.11
2023-06-18T06:29:22.821Z,20.11
2023-06-18T06:29:54.652Z,20.11
2023-06-18T06:30:26.994Z,20.22
2023-06-18T06:30:58.649Z,20.27
2023-06-18T06:31:30.976Z,20.27
2023-06-18T06:32:03.263Z,20.38
2023-06-18T06:32:34.662Z,20.38
2023-06-18T06:33:06.682Z,20.38
2023-06-18T06:33:38.592Z,20.38
2023-06-18T06:34:10.824Z,20.38
2023-06-18T06:34:42.452Z,20.38
2023-06-18T06:35:14.848Z,20.50
2023-06-18T06:35:46.518Z,20.50
2023-06-18T06:36:18.249Z,20.50
2023-06-18T06:36:34.445Z,20.50
2023-06-18T06:37:18.283Z,20.61
2023-06-18T06:37:50.942Z,20.61
2023-06-18T06:38:22.291Z,20.72
2023-06-18T06:38:54.281Z,20.88
2023-06-18T06:39:26.446Z,20.88
2023-06-18T06:39:58.327Z,20.88
2023-06-18T06:40:31.172Z,20.88
2023-06-18T06:41:02.530Z,20.88
2023-06-18T06:41:34.229Z,20.88
2023-06-18T06:42:06.282Z,20.88
2023-06-18T06:42:38.109Z,20.88
2023-06-18T06:43:10.439Z,20.88
2023-06-18T06:43:42.118Z,20.88
2023-06-18T06:44:14.297Z,21.00
2023-06-18T06:44:46.206Z,21.22
2023-06-18T06:45:19.633Z,21.27
2023-06-18T06:45:50.493Z,21.50
2023-06-18T06:46:24.260Z,21.50
2023-06-18T06:46:53.904Z,21.61
2023-06-18T06:47:26.014Z,21.61